Time;durP1;ratioP1;P1;durP2;ratioP2;P2;SDS_P1;SDS_P2;PMS_P1;PMS_P2;Temp;Humidity;BMP_temperature;BMP_pressure;BME280_temperature;BME280_humidity;BME280_pressure;Samples;Min_cycle;Max_cycle;Signal;HPM_P1;HPM_P2
2023/03/03 00:01:01;;;;;;;;;17.00;14.00;;;;;;;;5017160;28;51109;-58
2023/03/03 00:03:46;;;;;;;;;21.00;16.00;;;;;;;;5017383;28;51143;-56
2023/03/03 00:06:30;;;;;;;;;13.25;11.00;;;;;;;;5016898;28;51234;-52
2023/03/03 00:09:14;;;;;;;;;15.25;11.75;;;;;;;;5017423;28;51105;-56
2023/03/03 00:12:00;;;;;;;;;18.50;5.50;;;;;;;;5016823;28;51357;-55
2023/03/03 00:14:44;;;;;;;;;20.00;14.25;;;;;;;;5017028;28;51181;-56
2023/03/03 00:17:29;;;;;;;;;21.50;13.25;;;;;;;;5016933;28;51148;-54
2023/03/03 00:20:40;;;;;;;;;22.75;15.75;;;;;;;;5016886;28;51122;-59
2023/03/03 00:23:27;;;;;;;;;21.50;15.25;;;;;;;;5016807;28;51001;-57
2023/03/03 00:26:33;;;;;;;;;23.75;17.00;;;;;;;;5016584;28;51539;-57
2023/03/03 00:29:29;;;;;;;;;20.50;14.50;;;;;;;;5015817;28;51226;-55
2023/03/03 00:32:32;;;;;;;;;20.75;15.50;;;;;;;;5016641;28;51051;-57
2023/03/03 00:35:26;;;;;;;;;24.00;17.00;;;;;;;;5017030;28;51162;-55
2023/03/03 02:17:16;;;;;;;;;19.75;17.50;;;;;;;;4793951;29;51396;-54
2023/03/03 02:20:13;;;;;;;;;18.75;14.00;;;;;;;;4802480;29;51250;-52
2023/03/03 02:23:02;;;;;;;;;20.25;13.25;;;;;;;;4827662;29;51083;-56
2023/03/03 02:25:50;;;;;;;;;17.50;17.00;;;;;;;;4827454;29;51135;-51
2023/03/03 02:28:36;;;;;;;;;15.50;14.00;;;;;;;;4827674;29;51583;-57
2023/03/03 02:31:22;;;;;;;;;23.00;15.75;;;;;;;;4820122;29;51144;-58
2023/03/03 02:34:06;;;;;;;;;17.75;16.00;;;;;;;;4823970;29;51347;-54
2023/03/03 02:36:50;;;;;;;;;23.00;14.25;;;;;;;;4827496;29;51215;-55
2023/03/03 02:39:34;;;;;;;;;16.50;12.75;;;;;;;;4834354;29;51187;-54
2023/03/03 02:42:21;;;;;;;;;17.50;12.50;;;;;;;;4915051;28;51392;-56
2023/03/03 02:45:05;;;;;;;;;20.50;15.75;;;;;;;;4907655;28;51161;-52
2023/03/03 02:47:50;;;;;;;;;19.50;16.00;;;;;;;;4971694;28;51203;-53
2023/03/03 02:50:35;;;;;;;;;25.25;16.50;;;;;;;;4989482;28;51276;-54
2023/03/03 02:53:19;;;;;;;;;22.00;18.00;;;;;;;;4956455;28;51162;-56
2023/03/03 02:56:03;;;;;;;;;17.50;15.00;;;;;;;;4979309;28;50989;-54
2023/03/03 02:58:48;;;;;;;;;16.25;14.75;;;;;;;;4995092;28;51041;-51
2023/03/03 03:01:35;;;;;;;;;24.25;13.50;;;;;;;;4998095;28;51546;-51
2023/03/03 03:04:21;;;;;;;;;23.00;17.75;;;;;;;;4998110;28;51146;-54
2023/03/03 03:07:05;;;;;;;;;15.75;12.75;;;;;;;;4997879;28;52007;-58
2023/03/03 03:09:50;;;;;;;;;15.25;13.50;;;;;;;;4997786;28;51208;-56
2023/03/03 03:12:35;;;;;;;;;18.25;15.50;;;;;;;;4998434;28;51089;-55
2023/03/03 03:15:19;;;;;;;;;20.50;15.25;;;;;;;;4998039;28;51859;-58
2023/03/03 03:18:04;;;;;;;;;18.75;14.50;;;;;;;;5009533;28;51571;-59
2023/03/03 03:20:48;;;;;;;;;17.00;15.00;;;;;;;;5017653;28;51126;-52
2023/03/03 03:23:33;;;;;;;;;23.00;18.00;;;;;;;;5018188;28;51521;-56
2023/03/03 03:26:19;;;;;;;;;22.00;16.00;;;;;;;;5017375;28;51422;-50
2023/03/03 03:29:05;;;;;;;;;20.50;18.25;;;;;;;;5017596;28;51145;-55
2023/03/03 03:31:49;;;;;;;;;24.00;17.00;;;;;;;;5017886;28;51557;-57
2023/03/03 03:34:33;;;;;;;;;20.00;16.00;;;;;;;;5017475;28;51135;-53
2023/03/03 03:37:18;;;;;;;;;21.00;14.25;;;;;;;;5017760;28;51127;-52
2023/03/03 03:40:02;;;;;;;;;18.00;14.00;;;;;;;;5017227;28;51450;-56
2023/03/03 03:42:47;;;;;;;;;18.50;14.75;;;;;;;;5017586;28;51272;-56
2023/03/03 03:45:31;;;;;;;;;18.25;15.50;;;;;;;;5017146;28;51175;-56
2023/03/03 03:48:16;;;;;;;;;19.00;16.75;;;;;;;;5017533;28;51173;-56
2023/03/03 03:51:00;;;;;;;;;26.50;15.00;;;;;;;;5017432;28;51385;-57
2023/03/03 03:53:45;;;;;;;;;20.50;15.00;;;;;;;;5017326;28;51221;-59
2023/03/03 03:56:29;;;;;;;;;23.75;15.00;;;;;;;;5017440;28;51211;-55
2023/03/03 03:59:13;;;;;;;;;24.50;16.75;;;;;;;;5016838;28;51205;-56
2023/03/03 04:01:58;;;;;;;;;19.50;15.50;;;;;;;;5017627;28;51162;-56
2023/03/03 04:04:42;;;;;;;;;15.75;14.00;;;;;;;;5016589;28;51150;-56
2023/03/03 04:07:27;;;;;;;;;17.50;13.25;;;;;;;;5017072;28;51052;-56
2023/03/03 04:10:11;;;;;;;;;20.75;17.50;;;;;;;;5016869;28;51151;-54
2023/03/03 04:12:55;;;;;;;;;21.75;16.00;;;;;;;;4997408;28;51160;-56
2023/03/03 04:15:40;;;;;;;;;23.25;19.00;;;;;;;;5016366;28;51164;-52
2023/03/03 04:18:25;;;;;;;;;21.75;16.75;;;;;;;;5016605;28;51105;-58
2023/03/03 04:21:13;;;;;;;;;23.00;16.00;;;;;;;;5017205;28;51092;-55
2023/03/03 04:23:57;;;;;;;;;18.50;16.00;;;;;;;;5016977;28;51146;-56
2023/03/03 04:26:41;;;;;;;;;24.00;17.25;;;;;;;;5016786;28;51448;-52
2023/03/03 04:29:26;;;;;;;;;20.25;17.00;;;;;;;;5016284;28;51543;-51
2023/03/03 04:32:10;;;;;;;;;23.50;19.25;;;;;;;;5016963;28;51097;-53
2023/03/03 04:34:55;;;;;;;;;27.50;19.00;;;;;;;;5016240;28;51325;-55
2023/03/03 04:37:39;;;;;;;;;21.25;17.50;;;;;;;;5016893;28;51067;-45
2023/03/03 04:40:24;;;;;;;;;26.00;17.50;;;;;;;;5016342;28;51092;-43
2023/03/03 04:43:09;;;;;;;;;24.25;16.25;;;;;;;;5016740;28;51050;-44
2023/03/03 04:45:53;;;;;;;;;18.50;16.25;;;;;;;;5016261;28;51282;-44
2023/03/03 04:48:37;;;;;;;;;19.50;16.00;;;;;;;;5016087;28;51076;-43
2023/03/03 04:51:22;;;;;;;;;18.00;14.25;;;;;;;;5016679;28;51055;-47
2023/03/03 04:54:06;;;;;;;;;18.00;14.75;;;;;;;;5016411;28;51127;-45
2023/03/03 04:56:51;;;;;;;;;28.00;19.00;;;;;;;;4996893;27;51418;-46
2023/03/03 04:59:35;;;;;;;;;21.25;16.00;;;;;;;;4996073;28;51046;-45
2023/03/03 05:02:19;;;;;;;;;20.25;16.50;;;;;;;;4996768;28;51110;-47
2023/03/03 05:05:04;;;;;;;;;19.50;16.50;;;;;;;;5010163;28;51572;-45
2023/03/03 05:07:49;;;;;;;;;26.50;19.00;;;;;;;;5015921;28;51109;-47
2023/03/03 05:10:33;;;;;;;;;16.75;13.50;;;;;;;;5016339;28;51129;-52
2023/03/03 05:13:17;;;;;;;;;19.25;17.00;;;;;;;;5011786;28;51174;-46
2023/03/03 05:16:02;;;;;;;;;26.50;18.00;;;;;;;;5019416;28;51077;-47
2023/03/03 05:18:47;;;;;;;;;19.00;17.25;;;;;;;;5018852;28;51445;-46
2023/03/03 05:21:32;;;;;;;;;16.50;12.50;;;;;;;;5019551;28;51443;-44
2023/03/03 05:24:16;;;;;;;;;25.50;19.00;;;;;;;;5019349;28;51091;-46
2023/03/03 05:27:02;;;;;;;;;27.25;18.50;;;;;;;;5019477;28;51090;-48
2023/03/03 05:29:46;;;;;;;;;22.25;18.75;;;;;;;;5017904;28;51121;-44
2023/03/03 05:32:31;;;;;;;;;24.00;18.00;;;;;;;;5019366;28;51107;-45
2023/03/03 05:35:16;;;;;;;;;22.75;18.00;;;;;;;;5019250;28;51065;-45
2023/03/03 05:38:00;;;;;;;;;19.50;17.00;;;;;;;;4999478;28;51067;-45
2023/03/03 05:40:46;;;;;;;;;21.25;18.00;;;;;;;;4999459;28;51082;-43
2023/03/03 05:43:30;;;;;;;;;19.00;17.50;;;;;;;;5019214;28;51404;-43
2023/03/03 05:46:15;;;;;;;;;22.25;19.00;;;;;;;;5018826;28;51005;-46
2023/03/03 05:48:59;;;;;;;;;20.75;18.00;;;;;;;;5018714;28;51084;-43
2023/03/03 05:51:44;;;;;;;;;19.75;17.00;;;;;;;;5019099;28;51056;-46
2023/03/03 05:54:28;;;;;;;;;25.75;17.75;;;;;;;;5018767;28;51538;-42
2023/03/03 05:57:13;;;;;;;;;19.75;17.75;;;;;;;;5018856;28;52191;-44
2023/03/03 07:01:53;;;;;;;;;13.25;6.50;;;;;;;;4389110;32;51029;-44
2023/03/03 07:04:38;;;;;;;;;22.25;18.25;;;;;;;;5034599;28;51057;-46
2023/03/03 07:07:24;;;;;;;;;19.00;15.00;;;;;;;;5033731;28;51515;-45
2023/03/03 07:10:15;;;;;;;;;16.75;14.00;;;;;;;;5034111;28;51215;-44
2023/03/03 07:13:14;;;;;;;;;20.50;16.00;;;;;;;;5029172;28;51095;-45
2023/03/03 07:16:00;;;;;;;;;17.25;15.75;;;;;;;;5034155;28;53273;-44
2023/03/03 07:18:44;;;;;;;;;22.00;16.50;;;;;;;;5033940;28;51162;-47
2023/03/03 07:21:31;;;;;;;;;45.50;35.00;;;;;;;;5033589;28;51354;-43
2023/03/03 07:24:21;;;;;;;;;44.00;29.50;;;;;;;;5033980;28;51449;-45
2023/03/03 07:27:10;;;;;;;;;25.50;21.75;;;;;;;;5028502;28;51166;-44
2023/03/03 07:30:11;;;;;;;;;29.75;22.50;;;;;;;;5033960;28;51098;-46
2023/03/03 07:32:57;;;;;;;;;23.75;21.00;;;;;;;;5033638;28;51196;-45
2023/03/03 07:35:42;;;;;;;;;23.00;18.00;;;;;;;;5033570;28;51121;-42
2023/03/03 07:38:46;;;;;;;;;20.50;14.50;;;;;;;;5033274;28;51173;-42
2023/03/03 07:41:33;;;;;;;;;22.50;18.50;;;;;;;;5075989;27;51212;-44
2023/03/03 07:44:23;;;;;;;;;23.00;19.25;;;;;;;;5117583;27;50997;-45
2023/03/03 07:47:19;;;;;;;;;21.50;16.25;;;;;;;;5117238;27;51034;-47
2023/03/03 07:50:21;;;;;;;;;20.50;17.00;;;;;;;;5116761;27;51034;-44
2023/03/03 07:53:13;;;;;;;;;24.25;18.75;;;;;;;;5117079;27;51064;-45
2023/03/03 07:55:58;;;;;;;;;21.25;17.00;;;;;;;;5117362;27;51144;-45
2023/03/03 07:58:42;;;;;;;;;22.50;17.25;;;;;;;;5116514;27;50999;-44
2023/03/03 08:01:43;;;;;;;;;16.75;14.25;;;;;;;;5103751;27;51069;-42
2023/03/03 08:04:28;;;;;;;;;14.50;14.25;;;;;;;;5102987;27;51165;-45
2023/03/03 08:07:22;;;;;;;;;19.00;15.75;;;;;;;;5102870;27;51095;-46
2023/03/03 08:10:26;;;;;;;;;19.00;16.00;;;;;;;;5103102;27;51089;-44
2023/03/03 08:13:20;;;;;;;;;18.75;14.00;;;;;;;;5102789;27;50987;-44
2023/03/03 08:16:08;;;;;;;;;18.25;14.00;;;;;;;;5103063;27;51442;-49
2023/03/03 08:18:52;;;;;;;;;19.25;15.00;;;;;;;;5102600;27;51139;-43
2023/03/03 08:21:37;;;;;;;;;17.50;14.00;;;;;;;;5102364;27;51215;-46
2023/03/03 08:24:22;;;;;;;;;18.25;14.00;;;;;;;;5102599;27;51085;-43
2023/03/03 08:27:06;;;;;;;;;18.75;12.75;;;;;;;;5095422;27;51086;-46
2023/03/03 08:29:50;;;;;;;;;19.00;14.25;;;;;;;;5102237;27;51424;-48
2023/03/03 08:32:35;;;;;;;;;18.00;14.00;;;;;;;;5102167;27;51140;-45
2023/03/03 08:35:19;;;;;;;;;19.00;14.00;;;;;;;;5102478;27;51038;-45
2023/03/03 08:38:04;;;;;;;;;16.00;14.25;;;;;;;;5102226;27;51428;-43
2023/03/03 08:40:49;;;;;;;;;16.00;13.25;;;;;;;;5102411;27;51118;-46
2023/03/03 08:43:34;;;;;;;;;18.00;11.00;;;;;;;;5102140;27;51192;-44
2023/03/03 08:46:18;;;;;;;;;14.75;14.50;;;;;;;;5102427;27;51102;-43
2023/03/03 08:49:02;;;;;;;;;14.25;12.75;;;;;;;;5101762;27;51557;-46
2023/03/03 08:51:47;;;;;;;;;15.50;13.50;;;;;;;;5102201;27;51157;-48
2023/03/03 08:54:31;;;;;;;;;16.50;14.75;;;;;;;;5102123;27;51383;-44
2023/03/03 08:57:16;;;;;;;;;13.50;12.00;;;;;;;;5102208;27;51096;-44
2023/03/03 09:00:00;;;;;;;;;14.50;10.25;;;;;;;;5101778;27;51232;-46
2023/03/03 09:02:44;;;;;;;;;20.25;13.00;;;;;;;;5099618;27;51453;-44
2023/03/03 09:05:29;;;;;;;;;19.50;12.25;;;;;;;;5102112;27;51451;-44
2023/03/03 09:08:13;;;;;;;;;18.75;12.75;;;;;;;;5093731;27;51039;-45
2023/03/03 09:10:57;;;;;;;;;16.50;12.00;;;;;;;;5101440;27;51062;-46
2023/03/03 09:13:42;;;;;;;;;17.25;14.75;;;;;;;;5100303;27;51150;-46
2023/03/03 09:16:29;;;;;;;;;20.00;16.00;;;;;;;;5101814;27;51108;-42
2023/03/03 09:19:16;;;;;;;;;20.25;15.50;;;;;;;;5101423;27;51108;-44
2023/03/03 09:22:21;;;;;;;;;12.50;9.25;;;;;;;;5100398;27;51122;-45
2023/03/03 09:25:13;;;;;;;;;22.50;15.75;;;;;;;;5101214;27;51173;-45
2023/03/03 09:27:58;;;;;;;;;22.75;15.75;;;;;;;;5085406;27;51560;-45
2023/03/03 09:30:47;;;;;;;;;17.00;14.00;;;;;;;;5101264;27;51325;-44
2023/03/03 09:33:42;;;;;;;;;15.50;8.75;;;;;;;;5095844;27;51332;-42
2023/03/03 09:36:37;;;;;;;;;18.50;13.75;;;;;;;;5101591;27;51087;-43
2023/03/03 09:42:32;;;;;;;;;21.00;15.75;;;;;;;;5100991;27;51566;-46
2023/03/03 09:45:28;;;;;;;;;19.00;16.50;;;;;;;;5100791;27;51461;-45
2023/03/03 09:48:24;;;;;;;;;20.25;16.25;;;;;;;;5099989;27;51133;-46
2023/03/03 09:51:11;;;;;;;;;23.75;16.25;;;;;;;;5099903;27;51081;-44
2023/03/03 09:53:56;;;;;;;;;19.50;13.50;;;;;;;;5100226;27;51589;-45
2023/03/03 09:56:48;;;;;;;;;22.75;19.25;;;;;;;;5100214;27;51507;-43
2023/03/03 09:59:42;;;;;;;;;17.25;15.50;;;;;;;;5099089;27;51208;-46
2023/03/03 10:02:29;;;;;;;;;18.25;16.75;;;;;;;;5100186;27;51098;-49
2023/03/03 10:05:14;;;;;;;;;17.00;14.50;;;;;;;;5100147;27;51607;-45
2023/03/03 10:08:02;;;;;;;;;19.50;18.50;;;;;;;;5100825;27;51146;-47
2023/03/03 10:10:52;;;;;;;;;17.25;16.25;;;;;;;;5100118;27;51145;-48
2023/03/03 10:14:09;;;;;;;;;20.25;15.00;;;;;;;;5100365;27;51004;-44
2023/03/03 10:17:12;;;;;;;;;19.50;16.75;;;;;;;;5059437;27;51083;-46
2023/03/03 10:20:04;;;;;;;;;23.00;16.50;;;;;;;;5095037;27;51468;-49
2023/03/03 10:23:03;;;;;;;;;18.00;14.25;;;;;;;;5092842;27;51008;-45
2023/03/03 10:26:04;;;;;;;;;18.75;14.25;;;;;;;;5096163;27;51156;-43
2023/03/03 10:28:52;;;;;;;;;13.75;11.50;;;;;;;;5092309;27;51207;-46
2023/03/03 10:31:55;;;;;;;;;24.25;16.00;;;;;;;;5100071;27;51016;-45
2023/03/03 10:34:58;;;;;;;;;18.00;13.25;;;;;;;;5097827;27;51654;-45
2023/03/03 10:38:01;;;;;;;;;21.75;16.50;;;;;;;;5092820;27;51466;-45
2023/03/03 10:41:09;;;;;;;;;16.75;14.75;;;;;;;;5056775;28;51239;-47
2023/03/03 10:44:14;;;;;;;;;19.75;15.50;;;;;;;;5057447;28;51209;-44
2023/03/03 10:47:10;;;;;;;;;23.00;17.75;;;;;;;;5041625;28;51109;-46
2023/03/03 10:50:06;;;;;;;;;20.75;14.50;;;;;;;;5057250;28;51090;-45
2023/03/03 10:53:09;;;;;;;;;25.75;17.00;;;;;;;;5056688;28;51119;-44
2023/03/03 10:56:11;;;;;;;;;18.25;15.75;;;;;;;;5057219;28;51068;-43
